sensor_id;sensor_type;location;lat;lon;timestamp;P1;durP1;ratioP1;P2;durP2;ratioP2
29774;SDS011;16676;51.202;6.774;2023-04-03T00:03:37;3.33;;;1.77;;
29774;SDS011;16676;51.202;6.774;2023-04-03T00:07:39;3.22;;;1.60;;
29774;SDS011;16676;51.202;6.774;2023-04-03T00:11:42;3.55;;;1.92;;
29774;SDS011;16676;51.202;6.774;2023-04-03T00:15:44;1.88;;;1.50;;
29774;SDS011;16676;51.202;6.774;2023-04-03T00:19:46;2.38;;;1.70;;
29774;SDS011;16676;51.202;6.774;2023-04-03T00:23:48;2.95;;;1.60;;
29774;SDS011;16676;51.202;6.774;2023-04-03T00:27:51;2.45;;;1.45;;
29774;SDS011;16676;51.202;6.774;2023-04-03T00:31:53;3.40;;;1.40;;
29774;SDS011;16676;51.202;6.774;2023-04-03T00:35:55;3.25;;;1.70;;
29774;SDS011;16676;51.202;6.774;2023-04-03T00:39:57;2.78;;;1.70;;
29774;SDS011;16676;51.202;6.774;2023-04-03T00:44:01;2.15;;;1.50;;
29774;SDS011;16676;51.202;6.774;2023-04-03T00:52:21;3.15;;;1.70;;
29774;SDS011;16676;51.202;6.774;2023-04-03T00:56:27;2.50;;;1.42;;
29774;SDS011;16676;51.202;6.774;2023-04-03T01:00:32;2.63;;;1.70;;
29774;SDS011;16676;51.202;6.774;2023-04-03T01:04:35;2.58;;;1.75;;
29774;SDS011;16676;51.202;6.774;2023-04-03T01:13:55;3.47;;;1.83;;
29774;SDS011;16676;51.202;6.774;2023-04-03T01:18:18;3.63;;;1.77;;
29774;SDS011;16676;51.202;6.774;2023-04-03T01:22:41;3.53;;;1.60;;
29774;SDS011;16676;51.202;6.774;2023-04-03T01:27:11;2.80;;;1.60;;
29774;SDS011;16676;51.202;6.774;2023-04-03T01:31:15;3.03;;;1.73;;
29774;SDS011;16676;51.202;6.774;2023-04-03T01:35:23;2.53;;;1.23;;
29774;SDS011;16676;51.202;6.774;2023-04-03T01:39:25;2.30;;;1.48;;
29774;SDS011;16676;51.202;6.774;2023-04-03T01:43:27;3.33;;;1.60;;
29774;SDS011;16676;51.202;6.774;2023-04-03T01:47:29;3.25;;;1.70;;
29774;SDS011;16676;51.202;6.774;2023-04-03T01:51:32;2.80;;;1.60;;
29774;SDS011;16676;51.202;6.774;2023-04-03T01:55:34;2.35;;;1.58;;
29774;SDS011;16676;51.202;6.774;2023-04-03T01:59:36;2.92;;;1.50;;
29774;SDS011;16676;51.202;6.774;2023-04-03T02:03:38;2.22;;;1.50;;
29774;SDS011;16676;51.202;6.774;2023-04-03T02:07:41;3.95;;;1.90;;
29774;SDS011;16676;51.202;6.774;2023-04-03T02:11:43;2.83;;;1.67;;
29774;SDS011;16676;51.202;6.774;2023-04-03T02:15:45;3.13;;;1.60;;
29774;SDS011;16676;51.202;6.774;2023-04-03T02:19:47;2.83;;;1.70;;
29774;SDS011;16676;51.202;6.774;2023-04-03T02:23:51;2.72;;;1.67;;
29774;SDS011;16676;51.202;6.774;2023-04-03T02:27:53;2.10;;;1.60;;
29774;SDS011;16676;51.202;6.774;2023-04-03T02:31:54;1.85;;;0.95;;
29774;SDS011;16676;51.202;6.774;2023-04-03T02:35:57;4.25;;;1.50;;
29774;SDS011;16676;51.202;6.774;2023-04-03T02:40:00;2.60;;;1.73;;
29774;SDS011;16676;51.202;6.774;2023-04-03T02:44:03;2.25;;;1.58;;
29774;SDS011;16676;51.202;6.774;2023-04-03T02:48:07;2.10;;;1.50;;
29774;SDS011;16676;51.202;6.774;2023-04-03T02:52:09;3.72;;;1.50;;
29774;SDS011;16676;51.202;6.774;2023-04-03T02:56:12;2.80;;;1.83;;
29774;SDS011;16676;51.202;6.774;2023-04-03T03:00:14;2.03;;;1.38;;
29774;SDS011;16676;51.202;6.774;2023-04-03T03:04:16;2.40;;;1.30;;
29774;SDS011;16676;51.202;6.774;2023-04-03T03:08:18;2.30;;;1.35;;
29774;SDS011;16676;51.202;6.774;2023-04-03T03:12:22;3.00;;;1.63;;
29774;SDS011;16676;51.202;6.774;2023-04-03T03:16:24;1.95;;;1.45;;
29774;SDS011;16676;51.202;6.774;2023-04-03T03:20:26;3.60;;;1.75;;
29774;SDS011;16676;51.202;6.774;2023-04-03T03:24:28;2.00;;;1.48;;
29774;SDS011;16676;51.202;6.774;2023-04-03T03:28:32;1.85;;;1.20;;
29774;SDS011;16676;51.202;6.774;2023-04-03T03:32:34;1.40;;;1.15;;
29774;SDS011;16676;51.202;6.774;2023-04-03T03:36:35;2.70;;;1.50;;
29774;SDS011;16676;51.202;6.774;2023-04-03T03:40:38;1.50;;;1.23;;
29774;SDS011;16676;51.202;6.774;2023-04-03T03:44:41;2.17;;;1.60;;
29774;SDS011;16676;51.202;6.774;2023-04-03T03:48:43;3.33;;;1.30;;
29774;SDS011;16676;51.202;6.774;2023-04-03T03:52:45;2.33;;;1.27;;
29774;SDS011;16676;51.202;6.774;2023-04-03T03:56:47;2.08;;;1.40;;
29774;SDS011;16676;51.202;6.774;2023-04-03T04:00:50;2.05;;;1.52;;
29774;SDS011;16676;51.202;6.774;2023-04-03T04:04:52;2.65;;;1.55;;
29774;SDS011;16676;51.202;6.774;2023-04-03T04:08:54;3.17;;;1.55;;
29774;SDS011;16676;51.202;6.774;2023-04-03T04:12:56;2.95;;;1.65;;
29774;SDS011;16676;51.202;6.774;2023-04-03T04:16:59;1.60;;;1.30;;
29774;SDS011;16676;51.202;6.774;2023-04-03T04:21:02;2.15;;;1.13;;
29774;SDS011;16676;51.202;6.774;2023-04-03T04:25:04;2.72;;;1.90;;
29774;SDS011;16676;51.202;6.774;2023-04-03T04:29:08;2.15;;;1.42;;
29774;SDS011;16676;51.202;6.774;2023-04-03T04:33:11;2.65;;;1.50;;
29774;SDS011;16676;51.202;6.774;2023-04-03T04:37:14;2.33;;;1.48;;
29774;SDS011;16676;51.202;6.774;2023-04-03T04:41:16;3.92;;;1.40;;
29774;SDS011;16676;51.202;6.774;2023-04-03T04:45:18;2.78;;;1.27;;
29774;SDS011;16676;51.202;6.774;2023-04-03T04:49:22;4.82;;;1.50;;
29774;SDS011;16676;51.202;6.774;2023-04-03T04:53:24;5.40;;;1.58;;
29774;SDS011;16676;51.202;6.774;2023-04-03T04:57:26;4.57;;;1.70;;
29774;SDS011;16676;51.202;6.774;2023-04-03T05:01:28;2.42;;;1.35;;
29774;SDS011;16676;51.202;6.774;2023-04-03T05:05:31;2.65;;;1.42;;
29774;SDS011;16676;51.202;6.774;2023-04-03T05:09:34;4.85;;;1.52;;
29774;SDS011;16676;51.202;6.774;2023-04-03T05:13:36;3.60;;;1.40;;
29774;SDS011;16676;51.202;6.774;2023-04-03T05:17:38;3.63;;;1.50;;
29774;SDS011;16676;51.202;6.774;2023-04-03T05:21:41;6.85;;;1.40;;
29774;SDS011;16676;51.202;6.774;2023-04-03T05:25:43;2.72;;;1.50;;
29774;SDS011;16676;51.202;6.774;2023-04-03T05:29:45;4.80;;;2.40;;
29774;SDS011;16676;51.202;6.774;2023-04-03T05:33:47;6.18;;;2.50;;
29774;SDS011;16676;51.202;6.774;2023-04-03T05:37:50;7.53;;;2.67;;
29774;SDS011;16676;51.202;6.774;2023-04-03T05:41:52;5.10;;;2.03;;
29774;SDS011;16676;51.202;6.774;2023-04-03T05:45:54;5.20;;;1.90;;
29774;SDS011;16676;51.202;6.774;2023-04-03T05:49:56;8.98;;;1.85;;
29774;SDS011;16676;51.202;6.774;2023-04-03T05:54:00;4.93;;;1.85;;
29774;SDS011;16676;51.202;6.774;2023-04-03T05:58:08;6.72;;;1.85;;
29774;SDS011;16676;51.202;6.774;2023-04-03T06:02:10;4.30;;;1.98;;
29774;SDS011;16676;51.202;6.774;2023-04-03T06:06:13;7.20;;;2.03;;
29774;SDS011;16676;51.202;6.774;2023-04-03T06:10:17;5.57;;;2.10;;
29774;SDS011;16676;51.202;6.774;2023-04-03T06:14:20;5.35;;;2.03;;
29774;SDS011;16676;51.202;6.774;2023-04-03T06:18:22;4.28;;;1.80;;
29774;SDS011;16676;51.202;6.774;2023-04-03T06:22:24;5.13;;;1.95;;
29774;SDS011;16676;51.202;6.774;2023-04-03T06:26:31;5.40;;;1.63;;
29774;SDS011;16676;51.202;6.774;2023-04-03T06:30:33;4.90;;;1.70;;
29774;SDS011;16676;51.202;6.774;2023-04-03T06:34:35;4.25;;;1.63;;
29774;SDS011;16676;51.202;6.774;2023-04-03T06:38:37;4.65;;;1.67;;
29774;SDS011;16676;51.202;6.774;2023-04-03T06:42:40;3.47;;;1.50;;
29774;SDS011;16676;51.202;6.774;2023-04-03T06:46:43;5.85;;;1.73;;
29774;SDS011;16676;51.202;6.774;2023-04-03T06:50:46;3.60;;;1.65;;
29774;SDS011;16676;51.202;6.774;2023-04-03T06:54:48;3.10;;;1.52;;
29774;SDS011;16676;51.202;6.774;2023-04-03T06:58:53;3.78;;;1.33;;
29774;SDS011;16676;51.202;6.774;2023-04-03T07:02:57;4.40;;;1.55;;
29774;SDS011;16676;51.202;6.774;2023-04-03T07:06:59;4.72;;;1.88;;
29774;SDS011;16676;51.202;6.774;2023-04-03T07:11:01;3.38;;;1.58;;
29774;SDS011;16676;51.202;6.774;2023-04-03T07:15:05;4.35;;;1.20;;
29774;SDS011;16676;51.202;6.774;2023-04-03T07:19:08;2.58;;;1.20;;
29774;SDS011;16676;51.202;6.774;2023-04-03T07:23:10;4.05;;;1.60;;
29774;SDS011;16676;51.202;6.774;2023-04-03T07:27:12;2.10;;;1.25;;
29774;SDS011;16676;51.202;6.774;2023-04-03T07:31:16;3.63;;;1.50;;
29774;SDS011;16676;51.202;6.774;2023-04-03T07:35:18;2.90;;;1.23;;
29774;SDS011;16676;51.202;6.774;2023-04-03T07:39:20;3.28;;;1.58;;
29774;SDS011;16676;51.202;6.774;2023-04-03T07:43:22;2.58;;;1.10;;
29774;SDS011;16676;51.202;6.774;2023-04-03T07:47:26;3.05;;;1.40;;
29774;SDS011;16676;51.202;6.774;2023-04-03T07:51:28;3.35;;;1.33;;
29774;SDS011;16676;51.202;6.774;2023-04-03T07:55:31;3.03;;;1.20;;
29774;SDS011;16676;51.202;6.774;2023-04-03T07:59:33;5.05;;;1.40;;
29774;SDS011;16676;51.202;6.774;2023-04-03T08:03:37;2.45;;;1.20;;
29774;SDS011;16676;51.202;6.774;2023-04-03T08:07:39;3.30;;;1.40;;
29774;SDS011;16676;51.202;6.774;2023-04-03T08:11:41;3.47;;;1.40;;
29774;SDS011;16676;51.202;6.774;2023-04-03T08:15:43;2.47;;;1.20;;
29774;SDS011;16676;51.202;6.774;2023-04-03T08:19:47;3.78;;;1.15;;
29774;SDS011;16676;51.202;6.774;2023-04-03T08:23:49;3.05;;;1.38;;
29774;SDS011;16676;51.202;6.774;2023-04-03T08:27:51;3.03;;;1.10;;
29774;SDS011;16676;51.202;6.774;2023-04-03T08:31:53;2.38;;;1.00;;
29774;SDS011;16676;51.202;6.774;2023-04-03T08:35:56;2.65;;;1.33;;
29774;SDS011;16676;51.202;6.774;2023-04-03T08:39:58;2.13;;;1.20;;
29774;SDS011;16676;51.202;6.774;2023-04-03T08:44:02;2.55;;;1.38;;
29774;SDS011;16676;51.202;6.774;2023-04-03T08:48:13;3.63;;;1.20;;
29774;SDS011;16676;51.202;6.774;2023-04-03T08:52:20;3.78;;;1.17;;
29774;SDS011;16676;51.202;6.774;2023-04-03T08:56:30;1.90;;;1.00;;
29774;SDS011;16676;51.202;6.774;2023-04-03T09:00:34;1.92;;;1.02;;
29774;SDS011;16676;51.202;6.774;2023-04-03T09:04:44;1.65;;;1.10;;
29774;SDS011;16676;51.202;6.774;2023-04-03T09:08:49;2.13;;;1.10;;
29774;SDS011;16676;51.202;6.774;2023-04-03T09:12:58;1.60;;;0.88;;
29774;SDS011;16676;51.202;6.774;2023-04-03T09:17:07;1.83;;;0.95;;
29774;SDS011;16676;51.202;6.774;2023-04-03T09:21:17;1.95;;;1.08;;
29774;SDS011;16676;51.202;6.774;2023-04-03T09:25:27;2.92;;;1.08;;
29774;SDS011;16676;51.202;6.774;2023-04-03T09:29:35;2.42;;;1.02;;
29774;SDS011;16676;51.202;6.774;2023-04-03T09:33:42;1.90;;;1.10;;
29774;SDS011;16676;51.202;6.774;2023-04-03T09:37:46;2.00;;;1.10;;
29774;SDS011;16676;51.202;6.774;2023-04-03T09:41:57;2.78;;;1.17;;
29774;SDS011;16676;51.202;6.774;2023-04-03T09:46:17;2.63;;;0.95;;
29774;SDS011;16676;51.202;6.774;2023-04-03T09:50:26;2.05;;;1.02;;
29774;SDS011;16676;51.202;6.774;2023-04-03T09:54:34;1.98;;;0.95;;
29774;SDS011;16676;51.202;6.774;2023-04-03T09:58:43;2.75;;;0.90;;
29774;SDS011;16676;51.202;6.774;2023-04-03T10:02:49;2.22;;;1.20;;
29774;SDS011;16676;51.202;6.774;2023-04-03T10:06:54;1.30;;;0.85;;
29774;SDS011;16676;51.202;6.774;2023-04-03T10:11:07;3.17;;;1.42;;
29774;SDS011;16676;51.202;6.774;2023-04-03T10:15:13;1.65;;;0.98;;
29774;SDS011;16676;51.202;6.774;2023-04-03T10:19:22;1.65;;;0.80;;
29774;SDS011;16676;51.202;6.774;2023-04-03T10:23:36;1.95;;;1.05;;
29774;SDS011;16676;51.202;6.774;2023-04-03T10:27:46;2.17;;;0.88;;
29774;SDS011;16676;51.202;6.774;2023-04-03T10:31:59;2.50;;;0.70;;
29774;SDS011;16676;51.202;6.774;2023-04-03T10:36:12;3.15;;;0.98;;
29774;SDS011;16676;51.202;6.774;2023-04-03T10:40:24;1.52;;;0.85;;
29774;SDS011;16676;51.202;6.774;2023-04-03T10:44:36;1.20;;;0.85;;
29774;SDS011;16676;51.202;6.774;2023-04-03T10:48:53;1.88;;;1.02;;
29774;SDS011;16676;51.202;6.774;2023-04-03T10:53:06;2.38;;;1.05;;
29774;SDS011;16676;51.202;6.774;2023-04-03T10:57:13;1.67;;;0.82;;
29774;SDS011;16676;51.202;6.774;2023-04-03T11:01:16;1.20;;;0.90;;
29774;SDS011;16676;51.202;6.774;2023-04-03T11:05:30;1.90;;;1.00;;
29774;SDS011;16676;51.202;6.774;2023-04-03T11:09:35;2.08;;;1.00;;
29774;SDS011;16676;51.202;6.774;2023-04-03T11:13:41;2.33;;;1.05;;
29774;SDS011;16676;51.202;6.774;2023-04-03T11:17:48;3.30;;;1.27;;
29774;SDS011;16676;51.202;6.774;2023-04-03T11:21:56;1.75;;;0.90;;
29774;SDS011;16676;51.202;6.774;2023-04-03T11:26:07;1.73;;;1.10;;
29774;SDS011;16676;51.202;6.774;2023-04-03T11:30:14;2.72;;;1.10;;
29774;SDS011;16676;51.202;6.774;2023-04-03T11:34:24;1.75;;;1.10;;
29774;SDS011;16676;51.202;6.774;2023-04-03T11:38:36;2.42;;;0.95;;
29774;SDS011;16676;51.202;6.774;2023-04-03T11:42:45;1.35;;;0.85;;
29774;SDS011;16676;51.202;6.774;2023-04-03T11:46:49;1.88;;;0.98;;
29774;SDS011;16676;51.202;6.774;2023-04-03T11:50:53;1.90;;;1.10;;
29774;SDS011;16676;51.202;6.774;2023-04-03T11:54:58;1.50;;;0.73;;
29774;SDS011;16676;51.202;6.774;2023-04-03T11:59:16;2.45;;;0.90;;
29774;SDS011;16676;51.202;6.774;2023-04-03T12:03:30;1.27;;;0.80;;
29774;SDS011;16676;51.202;6.774;2023-04-03T12:07:33;2.03;;;0.90;;
29774;SDS011;16676;51.202;6.774;2023-04-03T12:11:37;2.25;;;0.93;;
29774;SDS011;16676;51.202;6.774;2023-04-03T12:19:54;1.70;;;0.88;;
29774;SDS011;16676;51.202;6.774;2023-04-03T12:23:57;2.10;;;0.98;;
29774;SDS011;16676;51.202;6.774;2023-04-03T12:28:06;2.80;;;0.90;;
29774;SDS011;16676;51.202;6.774;2023-04-03T12:32:15;0.88;;;0.60;;
29774;SDS011;16676;51.202;6.774;2023-04-03T12:36:28;1.80;;;0.82;;
29774;SDS011;16676;51.202;6.774;2023-04-03T12:40:38;2.08;;;0.93;;
29774;SDS011;16676;51.202;6.774;2023-04-03T12:44:51;1.67;;;0.88;;
29774;SDS011;16676;51.202;6.774;2023-04-03T12:49:01;1.83;;;0.90;;
29774;SDS011;16676;51.202;6.774;2023-04-03T12:53:15;1.23;;;0.80;;
29774;SDS011;16676;51.202;6.774;2023-04-03T12:57:21;2.55;;;0.70;;
29774;SDS011;16676;51.202;6.774;2023-04-03T13:01:27;1.60;;;0.90;;
29774;SDS011;16676;51.202;6.774;2023-04-03T13:05:30;1.23;;;0.70;;
29774;SDS011;16676;51.202;6.774;2023-04-03T13:09:33;0.90;;;0.60;;
29774;SDS011;16676;51.202;6.774;2023-04-03T13:13:35;1.38;;;0.80;;
29774;SDS011;16676;51.202;6.774;2023-04-03T13:17:41;1.45;;;0.80;;
29774;SDS011;16676;51.202;6.774;2023-04-03T13:21:43;1.20;;;0.63;;
29774;SDS011;16676;51.202;6.774;2023-04-03T13:25:47;1.08;;;0.68;;
29774;SDS011;16676;51.202;6.774;2023-04-03T13:29:51;0.85;;;0.63;;
29774;SDS011;16676;51.202;6.774;2023-04-03T13:33:57;1.67;;;0.80;;
29774;SDS011;16676;51.202;6.774;2023-04-03T13:38:05;1.50;;;0.85;;
29774;SDS011;16676;51.202;6.774;2023-04-03T13:42:23;0.98;;;0.55;;
29774;SDS011;16676;51.202;6.774;2023-04-03T13:46:27;1.85;;;0.88;;
29774;SDS011;16676;51.202;6.774;2023-04-03T13:50:31;1.00;;;0.80;;
29774;SDS011;16676;51.202;6.774;2023-04-03T13:54:34;1.02;;;0.75;;
29774;SDS011;16676;51.202;6.774;2023-04-03T13:58:38;1.25;;;0.70;;
29774;SDS011;16676;51.202;6.774;2023-04-03T14:02:40;0.85;;;0.47;;
29774;SDS011;16676;51.202;6.774;2023-04-03T14:06:44;1.58;;;0.70;;
29774;SDS011;16676;51.202;6.774;2023-04-03T14:10:46;1.48;;;0.70;;
29774;SDS011;16676;51.202;6.774;2023-04-03T14:14:49;0.88;;;0.60;;
29774;SDS011;16676;51.202;6.774;2023-04-03T14:18:51;1.17;;;0.70;;
29774;SDS011;16676;51.202;6.774;2023-04-03T14:22:55;1.88;;;0.85;;
29774;SDS011;16676;51.202;6.774;2023-04-03T14:26:57;1.40;;;0.80;;
29774;SDS011;16676;51.202;6.774;2023-04-03T14:31:00;1.58;;;0.80;;
29774;SDS011;16676;51.202;6.774;2023-04-03T14:35:02;1.13;;;0.73;;
29774;SDS011;16676;51.202;6.774;2023-04-03T14:39:07;1.70;;;0.80;;
29774;SDS011;16676;51.202;6.774;2023-04-03T14:43:12;1.15;;;0.75;;
29774;SDS011;16676;51.202;6.774;2023-04-03T14:47:14;1.65;;;0.80;;
29774;SDS011;16676;51.202;6.774;2023-04-03T14:51:19;1.48;;;0.88;;
29774;SDS011;16676;51.202;6.774;2023-04-03T14:55:23;1.02;;;0.70;;
29774;SDS011;16676;51.202;6.774;2023-04-03T14:59:26;0.75;;;0.60;;
29774;SDS011;16676;51.202;6.774;2023-04-03T15:03:29;2.17;;;0.60;;
29774;SDS011;16676;51.202;6.774;2023-04-03T15:07:32;1.23;;;0.70;;
29774;SDS011;16676;51.202;6.774;2023-04-03T15:11:37;0.82;;;0.57;;
29774;SDS011;16676;51.202;6.774;2023-04-03T15:15:39;1.52;;;0.80;;
29774;SDS011;16676;51.202;6.774;2023-04-03T15:19:42;1.73;;;0.98;;
29774;SDS011;16676;51.202;6.774;2023-04-03T15:23:44;1.65;;;0.70;;
29774;SDS011;16676;51.202;6.774;2023-04-03T15:27:47;2.60;;;1.20;;
29774;SDS011;16676;51.202;6.774;2023-04-03T15:31:49;2.40;;;1.02;;
29774;SDS011;16676;51.202;6.774;2023-04-03T15:35:53;1.77;;;0.95;;
29774;SDS011;16676;51.202;6.774;2023-04-03T15:39:55;2.63;;;1.20;;
29774;SDS011;16676;51.202;6.774;2023-04-03T15:44:00;2.67;;;1.15;;
29774;SDS011;16676;51.202;6.774;2023-04-03T15:48:02;8.50;;;1.08;;
29774;SDS011;16676;51.202;6.774;2023-04-03T15:52:04;5.53;;;1.27;;
29774;SDS011;16676;51.202;6.774;2023-04-03T15:56:06;4.22;;;0.95;;
29774;SDS011;16676;51.202;6.774;2023-04-03T16:00:12;2.28;;;1.17;;
29774;SDS011;16676;51.202;6.774;2023-04-03T16:04:14;7.65;;;1.50;;
29774;SDS011;16676;51.202;6.774;2023-04-03T16:08:17;4.93;;;1.73;;
29774;SDS011;16676;51.202;6.774;2023-04-03T16:12:19;3.60;;;1.67;;
29774;SDS011;16676;51.202;6.774;2023-04-03T16:16:23;5.25;;;1.80;;
29774;SDS011;16676;51.202;6.774;2023-04-03T16:20:26;5.47;;;1.80;;
29774;SDS011;16676;51.202;6.774;2023-04-03T16:24:28;3.47;;;1.63;;
29774;SDS011;16676;51.202;6.774;2023-04-03T16:28:30;4.60;;;1.85;;
29774;SDS011;16676;51.202;6.774;2023-04-03T16:32:34;4.72;;;1.88;;
29774;SDS011;16676;51.202;6.774;2023-04-03T16:36:36;5.40;;;2.00;;
29774;SDS011;16676;51.202;6.774;2023-04-03T16:40:38;4.15;;;1.90;;
29774;SDS011;16676;51.202;6.774;2023-04-03T16:44:40;4.47;;;1.85;;
29774;SDS011;16676;51.202;6.774;2023-04-03T16:48:44;3.00;;;1.75;;
29774;SDS011;16676;51.202;6.774;2023-04-03T16:52:46;4.50;;;2.28;;
29774;SDS011;16676;51.202;6.774;2023-04-03T16:56:48;4.43;;;1.98;;
29774;SDS011;16676;51.202;6.774;2023-04-03T17:00:50;6.53;;;2.30;;
29774;SDS011;16676;51.202;6.774;2023-04-03T17:04:55;4.85;;;1.88;;
29774;SDS011;16676;51.202;6.774;2023-04-03T17:08:57;6.57;;;2.25;;
29774;SDS011;16676;51.202;6.774;2023-04-03T17:12:58;5.80;;;2.05;;
29774;SDS011;16676;51.202;6.774;2023-04-03T17:17:00;6.40;;;2.17;;
29774;SDS011;16676;51.202;6.774;2023-04-03T17:21:05;13.75;;;4.22;;
29774;SDS011;16676;51.202;6.774;2023-04-03T17:25:08;28.70;;;7.45;;
29774;SDS011;16676;51.202;6.774;2023-04-03T17:29:10;42.78;;;10.77;;
29774;SDS011;16676;51.202;6.774;2023-04-03T17:33:12;44.53;;;11.77;;
29774;SDS011;16676;51.202;6.774;2023-04-03T17:37:15;47.50;;;13.15;;
29774;SDS011;16676;51.202;6.774;2023-04-03T17:41:17;49.85;;;13.63;;
29774;SDS011;16676;51.202;6.774;2023-04-03T17:45:19;50.75;;;13.65;;
29774;SDS011;16676;51.202;6.774;2023-04-03T17:49:21;44.92;;;13.30;;
29774;SDS011;16676;51.202;6.774;2023-04-03T17:53:25;45.40;;;13.20;;
29774;SDS011;16676;51.202;6.774;2023-04-03T17:57:27;49.33;;;13.70;;
29774;SDS011;16676;51.202;6.774;2023-04-03T18:01:31;42.70;;;12.52;;
29774;SDS011;16676;51.202;6.774;2023-04-03T18:05:35;39.40;;;13.45;;
29774;SDS011;16676;51.202;6.774;2023-04-03T18:09:39;43.15;;;11.77;;
29774;SDS011;16676;51.202;6.774;2023-04-03T18:13:41;48.17;;;13.50;;
29774;SDS011;16676;51.202;6.774;2023-04-03T18:17:44;48.05;;;12.48;;
29774;SDS011;16676;51.202;6.774;2023-04-03T18:21:49;46.53;;;13.40;;
29774;SDS011;16676;51.202;6.774;2023-04-03T18:25:53;50.17;;;16.40;;
29774;SDS011;16676;51.202;6.774;2023-04-03T18:29:56;57.65;;;20.50;;
29774;SDS011;16676;51.202;6.774;2023-04-03T18:34:01;66.03;;;25.05;;
29774;SDS011;16676;51.202;6.774;2023-04-03T18:38:04;67.80;;;27.17;;
29774;SDS011;16676;51.202;6.774;2023-04-03T18:42:07;74.10;;;28.85;;
29774;SDS011;16676;51.202;6.774;2023-04-03T18:46:11;71.45;;;29.27;;
29774;SDS011;16676;51.202;6.774;2023-04-03T18:50:13;67.43;;;29.33;;
29774;SDS011;16676;51.202;6.774;2023-04-03T18:54:16;60.78;;;28.80;;
29774;SDS011;16676;51.202;6.774;2023-04-03T18:58:20;71.03;;;29.35;;
29774;SDS011;16676;51.202;6.774;2023-04-03T19:02:22;78.82;;;28.35;;
29774;SDS011;16676;51.202;6.774;2023-04-03T19:06:26;66.13;;;27.08;;
29774;SDS011;16676;51.202;6.774;2023-04-03T19:10:29;67.18;;;26.77;;
29774;SDS011;16676;51.202;6.774;2023-04-03T19:14:32;63.08;;;25.95;;
29774;SDS011;16676;51.202;6.774;2023-04-03T19:18:34;57.47;;;25.38;;
29774;SDS011;16676;51.202;6.774;2023-04-03T19:22:36;58.50;;;25.10;;
29774;SDS011;16676;51.202;6.774;2023-04-03T19:26:38;56.08;;;24.73;;
29774;SDS011;16676;51.202;6.774;2023-04-03T19:30:42;59.95;;;25.45;;
29774;SDS011;16676;51.202;6.774;2023-04-03T19:34:47;55.55;;;23.65;;
29774;SDS011;16676;51.202;6.774;2023-04-03T19:38:49;58.65;;;25.30;;
29774;SDS011;16676;51.202;6.774;2023-04-03T19:42:51;49.70;;;22.13;;
29774;SDS011;16676;51.202;6.774;2023-04-03T19:46:54;51.97;;;21.45;;
29774;SDS011;16676;51.202;6.774;2023-04-03T19:50:56;40.60;;;17.52;;
29774;SDS011;16676;51.202;6.774;2023-04-03T19:54:58;40.50;;;17.88;;
29774;SDS011;16676;51.202;6.774;2023-04-03T19:59:00;43.50;;;18.58;;
29774;SDS011;16676;51.202;6.774;2023-04-03T20:03:03;40.75;;;18.58;;
29774;SDS011;16676;51.202;6.774;2023-04-03T20:07:05;34.88;;;16.35;;
29774;SDS011;16676;51.202;6.774;2023-04-03T20:11:07;44.88;;;18.63;;
29774;SDS011;16676;51.202;6.774;2023-04-03T20:15:10;40.85;;;17.75;;
29774;SDS011;16676;51.202;6.774;2023-04-03T20:19:13;40.72;;;18.45;;
29774;SDS011;16676;51.202;6.774;2023-04-03T20:23:16;36.90;;;17.40;;
29774;SDS011;16676;51.202;6.774;2023-04-03T20:27:17;37.65;;;16.50;;
29774;SDS011;16676;51.202;6.774;2023-04-03T20:31:19;39.58;;;17.70;;
29774;SDS011;16676;51.202;6.774;2023-04-03T20:35:23;33.75;;;15.93;;
29774;SDS011;16676;51.202;6.774;2023-04-03T20:39:27;37.20;;;15.88;;
29774;SDS011;16676;51.202;6.774;2023-04-03T20:43:29;33.92;;;15.73;;
29774;SDS011;16676;51.202;6.774;2023-04-03T20:47:31;33.40;;;15.07;;
29774;SDS011;16676;51.202;6.774;2023-04-03T20:51:34;33.13;;;14.88;;
29774;SDS011;16676;51.202;6.774;2023-04-03T20:55:36;37.20;;;15.65;;
29774;SDS011;16676;51.202;6.774;2023-04-03T20:59:39;28.88;;;13.77;;
29774;SDS011;16676;51.202;6.774;2023-04-03T21:03:41;30.75;;;14.35;;
29774;SDS011;16676;51.202;6.774;2023-04-03T21:21:15;32.97;;;14.38;;
29774;SDS011;16676;51.202;6.774;2023-04-03T21:25:19;27.08;;;13.18;;
29774;SDS011;16676;51.202;6.774;2023-04-03T21:29:21;28.48;;;13.80;;
29774;SDS011;16676;51.202;6.774;2023-04-03T21:33:23;28.80;;;13.50;;
29774;SDS011;16676;51.202;6.774;2023-04-03T21:37:26;28.35;;;12.32;;
29774;SDS011;16676;51.202;6.774;2023-04-03T21:41:27;28.95;;;13.20;;
29774;SDS011;16676;51.202;6.774;2023-04-03T21:45:29;24.58;;;12.48;;
29774;SDS011;16676;51.202;6.774;2023-04-03T21:49:32;28.30;;;12.90;;
29774;SDS011;16676;51.202;6.774;2023-04-03T21:53:36;25.52;;;12.32;;
29774;SDS011;16676;51.202;6.774;2023-04-03T21:57:39;27.20;;;12.73;;
29774;SDS011;16676;51.202;6.774;2023-04-03T22:01:41;23.02;;;11.85;;
29774;SDS011;16676;51.202;6.774;2023-04-03T22:05:43;24.77;;;12.43;;
29774;SDS011;16676;51.202;6.774;2023-04-03T22:09:46;26.63;;;12.48;;
29774;SDS011;16676;51.202;6.774;2023-04-03T22:13:50;25.27;;;12.02;;
29774;SDS011;16676;51.202;6.774;2023-04-03T22:17:53;20.58;;;11.45;;
29774;SDS011;16676;51.202;6.774;2023-04-03T22:21:55;24.40;;;11.88;;
29774;SDS011;16676;51.202;6.774;2023-04-03T22:25:58;21.50;;;12.15;;
29774;SDS011;16676;51.202;6.774;2023-04-03T22:30:01;22.08;;;11.18;;
29774;SDS011;16676;51.202;6.774;2023-04-03T22:34:03;22.90;;;10.85;;
29774;SDS011;16676;51.202;6.774;2023-04-03T22:38:05;25.02;;;10.80;;
29774;SDS011;16676;51.202;6.774;2023-04-03T22:42:09;22.83;;;11.43;;
29774;SDS011;16676;51.202;6.774;2023-04-03T22:46:11;21.40;;;10.93;;
29774;SDS011;16676;51.202;6.774;2023-04-03T22:50:13;28.52;;;11.95;;
29774;SDS011;16676;51.202;6.774;2023-04-03T22:54:14;21.40;;;10.68;;
29774;SDS011;16676;51.202;6.774;2023-04-03T22:58:18;21.63;;;10.32;;
29774;SDS011;16676;51.202;6.774;2023-04-03T23:02:22;25.52;;;11.52;;
29774;SDS011;16676;51.202;6.774;2023-04-03T23:06:24;19.63;;;10.70;;
29774;SDS011;16676;51.202;6.774;2023-04-03T23:10:27;21.55;;;10.93;;
29774;SDS011;16676;51.202;6.774;2023-04-03T23:14:30;21.60;;;10.32;;
29774;SDS011;16676;51.202;6.774;2023-04-03T23:18:32;18.48;;;10.00;;
29774;SDS011;16676;51.202;6.774;2023-04-03T23:22:34;19.73;;;9.70;;
29774;SDS011;16676;51.202;6.774;2023-04-03T23:26:36;19.05;;;9.75;;
29774;SDS011;16676;51.202;6.774;2023-04-03T23:30:39;19.27;;;9.75;;
29774;SDS011;16676;51.202;6.774;2023-04-03T23:34:42;20.67;;;10.40;;
29774;SDS011;16676;51.202;6.774;2023-04-03T23:38:44;20.65;;;9.95;;
29774;SDS011;16676;51.202;6.774;2023-04-03T23:42:46;21.50;;;10.25;;
29774;SDS011;16676;51.202;6.774;2023-04-03T23:46:49;18.38;;;9.43;;
29774;SDS011;16676;51.202;6.774;2023-04-03T23:50:51;18.17;;;9.32;;
29774;SDS011;16676;51.202;6.774;2023-04-03T23:54:52;16.48;;;9.27;;
29774;SDS011;16676;51.202;6.774;2023-04-03T23:58:54;20.67;;;10.25;;
